Marietta, Mississippi
Current Conditions -  °F | °C
As of 10:53 PM on Saturday 20 Dec 2014 (Local Time) from KTUP Reporting Station
Clear Clear  
Wind Chill: 28°   Ceiling: Unl
Heat Index: 34°   Visibility: 10mi
Dew Point: 30°   Wind: 7mph
Humidity: 85%   Direction: 30°NNE
Pressure: 30.24"   Gusts: NA
Location:  34.5°N, 88.47°W
Report Text: KTUP 210453Z 03006KT 10SM CLR 01/M01 A3024 RMK AO2 SLP242 T00111011
Loading
Personal Weather Stations






























Interactive Weather Map New forecast layout! Learn more

10-Day Weather Forecast

Advertisements
Track Severe Weather on mobile